Aeroporto :
LOGIN :

Iscrizione | Disclaimer

   EN    FR    IT 

 










Sommario :    VFR   VFR Marginale   IFR   IFR Intensivo   IFR Molto Intensivo
Visibilità : 
Base nubi : 
>= 8 km
>= 3000ft
5 / 8 km
1000 / 3000 ft
1500m / 5 km
500 / 1000 ft
800 / 1500m
200 / 500 ft
< 800m
< 200 ft
Simboli :   Temporali  Nebbia  Neve Forte  Precipitazioni Forti  Vento > 20 kt
SIGMETs :   Varie  Temporali  Ghiacco  Turbolenza  Onda orograficha  Ceneri Vulcaniche






- Altitudine del aeroporto : 505 ft
- Codice IATA : SXB


LFST - Strasbourg

ULTIMO METAR :
  • 271900Z AUTO 00000KT CAVOK 06/05 Q1018 TEMPO 2500 BR BKN003

METARs OBSOLETI :
  • 271830Z AUTO 10003KT CAVOK 06/05 Q1018 TEMPO 2500 BR BKN003
  • 271800Z AUTO 27001KT CAVOK 06/05 Q1019 TEMPO 2500 BR BKN003
  • 271730Z AUTO VRB01KT CAVOK 06/05 Q1019 TEMPO 2500 BR BKN003
  • 271700Z AUTO VRB03KT CAVOK 06/05 Q1019 TEMPO 2500 BR BKN003
  • 271630Z AUTO 11003KT 080V150 CAVOK 06/05 Q1020 TEMPO 2500 BR BKN003

TAF TAF LFST
Valido dal 27 a 18 ore il 28 a 18 ore UTC


271700Z 2718/2818 VRB03KT CAVOK
TEMPO 2718/2809 2500 BR BKN003
PROB40
TEMPO 2722/2807 0500 FG VV///



MetMap, La meteo Aeronautica in un colpo d'occhio ! - Copyright ORBIFLY Dicembre 2007 - Disclaimer

ORBIFLY MET'MAP TEAM :

Programmazione e sviluppo : Alexandra Zaïnal
Concezione : Baudouin d'Aumeries
Supporto tecnico e logistico : Manuel Goepfert
Aiuto : Marc-Olivier Méhu
Aiuto per la traduzione : Arnaldo La Scala




FONTI E CREDITI :

   NOAA